sensor_id;sensor_type;location;lat;lon;timestamp;pressure;altitude;pressure_sealevel;temperature;humidity
18755;BME280;35061;47.664;9.166;2024-03-22T00:01:48;102363.64;;;9.53;86.25
18755;BME280;35061;47.664;9.166;2024-03-22T00:04:14;102364.06;;;9.51;86.57
18755;BME280;35061;47.664;9.166;2024-03-22T00:06:44;102360.14;;;9.45;86.44
18755;BME280;35061;47.664;9.166;2024-03-22T00:09:10;102359.45;;;9.41;86.52
18755;BME280;35061;47.664;9.166;2024-03-22T00:11:37;102354.28;;;9.35;86.35
18755;BME280;35061;47.664;9.166;2024-03-22T00:14:03;102358.47;;;9.31;86.26
18755;BME280;35061;47.664;9.166;2024-03-22T00:16:29;102350.88;;;9.24;86.30
18755;BME280;35061;47.664;9.166;2024-03-22T00:18:55;102354.19;;;9.23;87.18
18755;BME280;35061;47.664;9.166;2024-03-22T00:21:22;102350.59;;;9.18;87.11
18755;BME280;35061;47.664;9.166;2024-03-22T00:23:48;102349.45;;;9.16;87.71
18755;BME280;35061;47.664;9.166;2024-03-22T00:26:14;102346.66;;;9.12;88.12
18755;BME280;35061;47.664;9.166;2024-03-22T00:28:40;102348.37;;;9.10;87.87
18755;BME280;35061;47.664;9.166;2024-03-22T00:31:06;102352.55;;;9.05;87.71
18755;BME280;35061;47.664;9.166;2024-03-22T00:33:32;102358.73;;;9.03;88.04
18755;BME280;35061;47.664;9.166;2024-03-22T00:35:58;102345.33;;;9.00;88.66
18755;BME280;35061;47.664;9.166;2024-03-22T00:38:24;102350.69;;;8.98;88.78
18755;BME280;35061;47.664;9.166;2024-03-22T00:40:50;102341.40;;;8.94;88.81
18755;BME280;35061;47.664;9.166;2024-03-22T00:43:15;102353.27;;;8.92;88.79
18755;BME280;35061;47.664;9.166;2024-03-22T00:45:41;102337.80;;;8.90;89.37
18755;BME280;35061;47.664;9.166;2024-03-22T00:48:07;102344.77;;;8.89;89.69
18755;BME280;35061;47.664;9.166;2024-03-22T00:50:33;102347.71;;;8.85;89.45
18755;BME280;35061;47.664;9.166;2024-03-22T00:52:59;102340.48;;;8.80;89.40
18755;BME280;35061;47.664;9.166;2024-03-22T00:55:25;102337.25;;;8.78;89.69
18755;BME280;35061;47.664;9.166;2024-03-22T00:57:51;102330.02;;;8.74;90.01
18755;BME280;35061;47.664;9.166;2024-03-22T01:00:17;102329.59;;;8.75;90.21
18755;BME280;35061;47.664;9.166;2024-03-22T01:02:43;102321.91;;;8.72;90.38
18755;BME280;35061;47.664;9.166;2024-03-22T01:05:10;102321.52;;;8.70;90.47
18755;BME280;35061;47.664;9.166;2024-03-22T01:07:36;102318.67;;;8.70;90.70
18755;BME280;35061;47.664;9.166;2024-03-22T01:10:05;102306.54;;;8.66;91.02
18755;BME280;35061;47.664;9.166;2024-03-22T01:12:31;102312.27;;;8.66;91.21
18755;BME280;35061;47.664;9.166;2024-03-22T01:14:57;102304.94;;;8.65;91.33
18755;BME280;35061;47.664;9.166;2024-03-22T01:17:25;102309.95;;;8.61;91.18
18755;BME280;35061;47.664;9.166;2024-03-22T01:19:51;102308.41;;;8.56;91.04
18755;BME280;35061;47.664;9.166;2024-03-22T01:22:17;102301.87;;;8.56;91.55
18755;BME280;35061;47.664;9.166;2024-03-22T01:24:44;102304.81;;;8.52;91.56
18755;BME280;35061;47.664;9.166;2024-03-22T01:27:10;102304.87;;;8.48;92.04
18755;BME280;35061;47.664;9.166;2024-03-22T01:29:36;102303.24;;;8.47;92.23
18755;BME280;35061;47.664;9.166;2024-03-22T01:32:02;102302.13;;;8.45;92.44
18755;BME280;35061;47.664;9.166;2024-03-22T01:34:28;102301.73;;;8.43;91.89
18755;BME280;35061;47.664;9.166;2024-03-22T01:36:54;102305.56;;;8.36;91.83
18755;BME280;35061;47.664;9.166;2024-03-22T01:39:20;102295.91;;;8.30;91.83
18755;BME280;35061;47.664;9.166;2024-03-22T01:41:50;102298.86;;;8.26;92.34
18755;BME280;35061;47.664;9.166;2024-03-22T01:44:17;102300.10;;;8.25;93.05
18755;BME280;35061;47.664;9.166;2024-03-22T01:46:44;102301.34;;;8.24;93.21
18755;BME280;35061;47.664;9.166;2024-03-22T01:49:15;102295.36;;;8.18;93.42
18755;BME280;35061;47.664;9.166;2024-03-22T01:51:42;102295.49;;;8.11;93.14
18755;BME280;35061;47.664;9.166;2024-03-22T01:54:09;102292.35;;;8.05;92.75
18755;BME280;35061;47.664;9.166;2024-03-22T01:56:39;102292.84;;;8.00;92.93
18755;BME280;35061;47.664;9.166;2024-03-22T01:59:05;102294.54;;;7.98;93.59
18755;BME280;35061;47.664;9.166;2024-03-22T02:01:32;102291.70;;;7.98;93.65
18755;BME280;35061;47.664;9.166;2024-03-22T02:03:59;102279.11;;;7.95;94.09
18755;BME280;35061;47.664;9.166;2024-03-22T02:06:24;102270.70;;;7.88;93.51
18755;BME280;35061;47.664;9.166;2024-03-22T02:08:50;102282.12;;;7.88;93.85
18755;BME280;35061;47.664;9.166;2024-03-22T02:11:16;102278.06;;;7.85;93.60
18755;BME280;35061;47.664;9.166;2024-03-22T02:13:42;102275.31;;;7.81;93.72
18755;BME280;35061;47.664;9.166;2024-03-22T02:16:12;102274.13;;;7.79;93.77
18755;BME280;35061;47.664;9.166;2024-03-22T02:18:38;102272.17;;;7.76;93.79
18755;BME280;35061;47.664;9.166;2024-03-22T02:21:04;102266.09;;;7.74;94.69
18755;BME280;35061;47.664;9.166;2024-03-22T02:23:38;102265.21;;;7.77;94.79
18755;BME280;35061;47.664;9.166;2024-03-22T02:26:05;102264.39;;;7.76;95.47
18755;BME280;35061;47.664;9.166;2024-03-22T02:28:32;102259.52;;;7.77;95.11
18755;BME280;35061;47.664;9.166;2024-03-22T02:30:59;102250.95;;;7.77;94.52
18755;BME280;35061;47.664;9.166;2024-03-22T02:33:25;102249.41;;;7.72;94.21
18755;BME280;35061;47.664;9.166;2024-03-22T02:35:51;102254.32;;;7.72;94.46
18755;BME280;35061;47.664;9.166;2024-03-22T02:38:18;102258.41;;;7.71;94.59
18755;BME280;35061;47.664;9.166;2024-03-22T02:40:45;102257.23;;;7.68;94.01
18755;BME280;35061;47.664;9.166;2024-03-22T02:43:11;102252.85;;;7.63;94.17
18755;BME280;35061;47.664;9.166;2024-03-22T02:45:37;102249.28;;;7.59;94.19
18755;BME280;35061;47.664;9.166;2024-03-22T02:48:04;102244.80;;;7.58;94.73
18755;BME280;35061;47.664;9.166;2024-03-22T02:50:36;102240.29;;;7.61;95.05
18755;BME280;35061;47.664;9.166;2024-03-22T02:53:04;102235.75;;;7.63;95.58
18755;BME280;35061;47.664;9.166;2024-03-22T02:55:30;102241.96;;;7.58;94.65
18755;BME280;35061;47.664;9.166;2024-03-22T02:58:01;102236.99;;;7.62;95.31
18755;BME280;35061;47.664;9.166;2024-03-22T03:00:28;102231.62;;;7.64;95.75
18755;BME280;35061;47.664;9.166;2024-03-22T03:02:54;102227.12;;;7.67;95.70
18755;BME280;35061;47.664;9.166;2024-03-22T03:05:22;102224.62;;;7.69;95.64
18755;BME280;35061;47.664;9.166;2024-03-22T03:07:49;102220.97;;;7.68;95.46
18755;BME280;35061;47.664;9.166;2024-03-22T03:10:18;102224.20;;;7.71;95.73
18755;BME280;35061;47.664;9.166;2024-03-22T03:12:44;102218.84;;;7.73;95.81
18755;BME280;35061;47.664;9.166;2024-03-22T03:15:09;102225.64;;;7.79;95.52
18755;BME280;35061;47.664;9.166;2024-03-22T03:17:35;102229.30;;;7.79;95.19
18755;BME280;35061;47.664;9.166;2024-03-22T03:20:01;102230.13;;;7.80;95.16
18755;BME280;35061;47.664;9.166;2024-03-22T03:22:28;102221.98;;;7.78;95.05
18755;BME280;35061;47.664;9.166;2024-03-22T03:24:53;102230.13;;;7.80;94.91
18755;BME280;35061;47.664;9.166;2024-03-22T03:27:19;102228.52;;;7.79;94.83
18755;BME280;35061;47.664;9.166;2024-03-22T03:29:45;102224.83;;;7.78;95.31
18755;BME280;35061;47.664;9.166;2024-03-22T03:32:11;102228.88;;;7.81;95.31
18755;BME280;35061;47.664;9.166;2024-03-22T03:34:37;102221.91;;;7.82;95.18
18755;BME280;35061;47.664;9.166;2024-03-22T03:37:03;102209.72;;;7.81;95.44
18755;BME280;35061;47.664;9.166;2024-03-22T03:39:29;102212.10;;;7.83;95.48
18755;BME280;35061;47.664;9.166;2024-03-22T03:41:57;102210.57;;;7.78;95.27
18755;BME280;35061;47.664;9.166;2024-03-22T03:44:23;102205.70;;;7.79;95.05
18755;BME280;35061;47.664;9.166;2024-03-22T03:46:49;102209.42;;;7.76;94.99
18755;BME280;35061;47.664;9.166;2024-03-22T03:49:15;102209.42;;;7.76;95.51
18755;BME280;35061;47.664;9.166;2024-03-22T03:51:41;102205.04;;;7.71;94.91
18755;BME280;35061;47.664;9.166;2024-03-22T03:54:06;102194.05;;;7.70;95.39
18755;BME280;35061;47.664;9.166;2024-03-22T03:56:32;102196.93;;;7.70;95.58
18755;BME280;35061;47.664;9.166;2024-03-22T03:58:58;102198.96;;;7.69;95.47
18755;BME280;35061;47.664;9.166;2024-03-22T04:01:24;102195.40;;;7.65;95.65
18755;BME280;35061;47.664;9.166;2024-03-22T04:03:50;102197.81;;;7.66;95.91
18755;BME280;35061;47.664;9.166;2024-03-22T04:06:16;102186.40;;;7.66;95.89
18755;BME280;35061;47.664;9.166;2024-03-22T04:08:42;102183.63;;;7.63;95.71
18755;BME280;35061;47.664;9.166;2024-03-22T04:11:08;102179.17;;;7.62;96.26
18755;BME280;35061;47.664;9.166;2024-03-22T04:13:34;102172.99;;;7.63;96.40
18755;BME280;35061;47.664;9.166;2024-03-22T04:16:00;102178.36;;;7.61;95.95
18755;BME280;35061;47.664;9.166;2024-03-22T04:18:26;102175.97;;;7.60;96.12
18755;BME280;35061;47.664;9.166;2024-03-22T04:20:57;102179.24;;;7.58;96.01
18755;BME280;35061;47.664;9.166;2024-03-22T04:23:23;102172.80;;;7.54;95.71
18755;BME280;35061;47.664;9.166;2024-03-22T04:26:00;102174.92;;;7.50;96.17
18755;BME280;35061;47.664;9.166;2024-03-22T04:28:27;102177.28;;;7.55;97.02
18755;BME280;35061;47.664;9.166;2024-03-22T04:33:26;102167.89;;;7.54;96.85
18755;BME280;35061;47.664;9.166;2024-03-22T04:35:52;102167.89;;;7.54;96.74
18755;BME280;35061;47.664;9.166;2024-03-22T04:38:18;102172.44;;;7.52;96.42
18755;BME280;35061;47.664;9.166;2024-03-22T04:40:43;102176.88;;;7.53;96.80
18755;BME280;35061;47.664;9.166;2024-03-22T04:43:09;102172.37;;;7.56;97.28
18755;BME280;35061;47.664;9.166;2024-03-22T04:45:35;102169.86;;;7.58;97.13
18755;BME280;35061;47.664;9.166;2024-03-22T04:48:03;102170.67;;;7.58;97.00
18755;BME280;35061;47.664;9.166;2024-03-22T04:50:32;102173.55;;;7.58;96.87
18755;BME280;35061;47.664;9.166;2024-03-22T04:52:58;102164.98;;;7.58;96.60
18755;BME280;35061;47.664;9.166;2024-03-22T04:55:26;102169.13;;;7.53;96.29
18755;BME280;35061;47.664;9.166;2024-03-22T04:57:52;102169.56;;;7.52;96.22
18755;BME280;35061;47.664;9.166;2024-03-22T05:00:18;102171.30;;;7.49;96.16
18755;BME280;35061;47.664;9.166;2024-03-22T05:02:44;102165.64;;;7.46;96.13
18755;BME280;35061;47.664;9.166;2024-03-22T05:05:11;102161.62;;;7.43;96.63
18755;BME280;35061;47.664;9.166;2024-03-22T05:07:37;102156.74;;;7.44;96.75
18755;BME280;35061;47.664;9.166;2024-03-22T05:10:04;102161.62;;;7.43;96.63
18755;BME280;35061;47.664;9.166;2024-03-22T05:12:31;102155.50;;;7.45;96.99
18755;BME280;35061;47.664;9.166;2024-03-22T05:14:57;102148.54;;;7.46;97.20
18755;BME280;35061;47.664;9.166;2024-03-22T05:17:22;102154.98;;;7.50;97.47
18755;BME280;35061;47.664;9.166;2024-03-22T05:19:51;102152.46;;;7.52;97.45
18755;BME280;35061;47.664;9.166;2024-03-22T05:22:18;102148.30;;;7.57;97.45
18755;BME280;35061;47.664;9.166;2024-03-22T05:24:48;102148.77;;;7.55;96.80
18755;BME280;35061;47.664;9.166;2024-03-22T05:27:14;102151.22;;;7.53;96.77
18755;BME280;35061;47.664;9.166;2024-03-22T05:29:40;102143.92;;;7.52;96.78
18755;BME280;35061;47.664;9.166;2024-03-22T05:32:06;102152.10;;;7.50;96.52
18755;BME280;35061;47.664;9.166;2024-03-22T05:34:32;102136.34;;;7.45;96.45
18755;BME280;35061;47.664;9.166;2024-03-22T05:37:01;102138.89;;;7.39;96.53
18755;BME280;35061;47.664;9.166;2024-03-22T05:39:27;102142.91;;;7.42;96.89
18755;BME280;35061;47.664;9.166;2024-03-22T05:41:53;102138.01;;;7.43;96.81
18755;BME280;35061;47.664;9.166;2024-03-22T05:44:21;102138.82;;;7.43;97.00
18755;BME280;35061;47.664;9.166;2024-03-22T05:46:47;102148.17;;;7.44;97.14
18755;BME280;35061;47.664;9.166;2024-03-22T05:49:13;102147.72;;;7.45;97.13
18755;BME280;35061;47.664;9.166;2024-03-22T05:51:39;102148.90;;;7.48;97.27
18755;BME280;35061;47.664;9.166;2024-03-22T05:54:08;102147.23;;;7.50;97.35
18755;BME280;35061;47.664;9.166;2024-03-22T05:56:34;102140.72;;;7.50;96.99
18755;BME280;35061;47.664;9.166;2024-03-22T05:59:00;102145.52;;;7.53;97.04
18755;BME280;35061;47.664;9.166;2024-03-22T06:01:25;102142.68;;;7.53;97.30
18755;BME280;35061;47.664;9.166;2024-03-22T06:03:51;102150.30;;;7.60;97.50
18755;BME280;35061;47.664;9.166;2024-03-22T06:06:17;102148.14;;;7.64;97.57
18755;BME280;35061;47.664;9.166;2024-03-22T06:08:44;102153.70;;;7.71;97.17
18755;BME280;35061;47.664;9.166;2024-03-22T06:11:11;102147.91;;;7.75;97.22
18755;BME280;35061;47.664;9.166;2024-03-22T06:13:37;102137.62;;;7.81;97.44
18755;BME280;35061;47.664;9.166;2024-03-22T06:16:03;102143.92;;;7.89;97.23
18755;BME280;35061;47.664;9.166;2024-03-22T06:18:29;102148.30;;;7.93;97.28
18755;BME280;35061;47.664;9.166;2024-03-22T06:20:55;102143.34;;;7.98;97.13
18755;BME280;35061;47.664;9.166;2024-03-22T06:23:22;102145.66;;;8.03;96.90
18755;BME280;35061;47.664;9.166;2024-03-22T06:25:52;102143.89;;;8.09;97.00
18755;BME280;35061;47.664;9.166;2024-03-22T06:28:18;102148.63;;;8.16;96.81
18755;BME280;35061;47.664;9.166;2024-03-22T06:30:44;102144.45;;;8.20;96.76
18755;BME280;35061;47.664;9.166;2024-03-22T06:33:09;102145.88;;;8.29;96.75
18755;BME280;35061;47.664;9.166;2024-03-22T06:35:35;102137.58;;;8.34;96.83
18755;BME280;35061;47.664;9.166;2024-03-22T06:38:01;102133.30;;;8.43;96.89
18755;BME280;35061;47.664;9.166;2024-03-22T06:40:28;102137.94;;;8.53;96.80
18755;BME280;35061;47.664;9.166;2024-03-22T06:42:54;102128.78;;;8.62;96.78
18755;BME280;35061;47.664;9.166;2024-03-22T06:45:20;102130.91;;;8.74;96.65
18755;BME280;35061;47.664;9.166;2024-03-22T06:47:46;102128.55;;;8.86;96.54
18755;BME280;35061;47.664;9.166;2024-03-22T06:50:13;102128.36;;;8.93;96.62
18755;BME280;35061;47.664;9.166;2024-03-22T06:52:39;102127.15;;;9.07;96.54
18755;BME280;35061;47.664;9.166;2024-03-22T06:55:13;102120.71;;;9.19;96.45
18755;BME280;35061;47.664;9.166;2024-03-22T06:57:49;102126.10;;;9.30;96.17
18755;BME280;35061;47.664;9.166;2024-03-22T07:00:16;102120.88;;;9.42;95.93
18755;BME280;35061;47.664;9.166;2024-03-22T07:02:42;102129.14;;;9.53;95.71
18755;BME280;35061;47.664;9.166;2024-03-22T07:05:08;102128.78;;;9.63;95.48
18755;BME280;35061;47.664;9.166;2024-03-22T07:07:35;102121.59;;;9.72;95.16
18755;BME280;35061;47.664;9.166;2024-03-22T07:10:02;102114.85;;;9.78;94.77
18755;BME280;35061;47.664;9.166;2024-03-22T07:12:29;102119.20;;;9.83;94.35
18755;BME280;35061;47.664;9.166;2024-03-22T07:14:59;102115.09;;;9.84;94.19
18755;BME280;35061;47.664;9.166;2024-03-22T07:17:25;102116.23;;;9.87;93.77
18755;BME280;35061;47.664;9.166;2024-03-22T07:19:51;102119.01;;;9.90;93.47
18755;BME280;35061;47.664;9.166;2024-03-22T07:22:18;102115.80;;;9.88;92.36
18755;BME280;35061;47.664;9.166;2024-03-22T07:24:44;102110.63;;;9.83;91.88
18755;BME280;35061;47.664;9.166;2024-03-22T07:27:10;102118.52;;;9.79;91.90
18755;BME280;35061;47.664;9.166;2024-03-22T07:29:36;102115.18;;;9.81;92.06
18755;BME280;35061;47.664;9.166;2024-03-22T07:32:02;102110.73;;;9.80;91.99
18755;BME280;35061;47.664;9.166;2024-03-22T07:34:29;102114.76;;;9.82;92.35
18755;BME280;35061;47.664;9.166;2024-03-22T07:36:55;102109.59;;;9.90;92.25
18755;BME280;35061;47.664;9.166;2024-03-22T07:39:21;102112.70;;;9.96;92.22
18755;BME280;35061;47.664;9.166;2024-03-22T07:41:47;102105.47;;;10.04;92.02
18755;BME280;35061;47.664;9.166;2024-03-22T07:44:12;102107.30;;;10.11;92.00
18755;BME280;35061;47.664;9.166;2024-03-22T07:46:38;102106.58;;;10.19;91.76
18755;BME280;35061;47.664;9.166;2024-03-22T07:49:04;102108.45;;;10.26;91.58
18755;BME280;35061;47.664;9.166;2024-03-22T07:51:30;102098.34;;;10.34;91.39
18755;BME280;35061;47.664;9.166;2024-03-22T07:53:56;102104.69;;;10.42;91.06
18755;BME280;35061;47.664;9.166;2024-03-22T07:56:22;102108.87;;;10.51;90.70
18755;BME280;35061;47.664;9.166;2024-03-22T07:58:48;102103.34;;;10.56;90.15
18755;BME280;35061;47.664;9.166;2024-03-22T08:01:14;102104.49;;;10.59;89.26
18755;BME280;35061;47.664;9.166;2024-03-22T08:03:41;102102.88;;;10.58;88.62
18755;BME280;35061;47.664;9.166;2024-03-22T08:06:07;102103.93;;;10.64;88.41
18755;BME280;35061;47.664;9.166;2024-03-22T08:08:32;102103.31;;;10.69;88.44
18755;BME280;35061;47.664;9.166;2024-03-22T08:10:58;102101.28;;;10.70;88.04
18755;BME280;35061;47.664;9.166;2024-03-22T08:13:24;102101.94;;;10.74;87.58
18755;BME280;35061;47.664;9.166;2024-03-22T08:15:50;102098.51;;;10.79;87.63
18755;BME280;35061;47.664;9.166;2024-03-22T08:18:19;102092.16;;;10.84;87.44
18755;BME280;35061;47.664;9.166;2024-03-22T08:20:45;102088.73;;;10.89;87.21
18755;BME280;35061;47.664;9.166;2024-03-22T08:23:11;102079.05;;;10.96;87.00
18755;BME280;35061;47.664;9.166;2024-03-22T08:25:36;102076.37;;;11.02;86.69
18755;BME280;35061;47.664;9.166;2024-03-22T08:28:02;102073.72;;;11.08;86.53
18755;BME280;35061;47.664;9.166;2024-03-22T08:30:28;102069.47;;;11.12;86.30
18755;BME280;35061;47.664;9.166;2024-03-22T08:32:54;102060.24;;;11.17;85.98
18755;BME280;35061;47.664;9.166;2024-03-22T08:35:20;102070.48;;;11.28;85.67
18755;BME280;35061;47.664;9.166;2024-03-22T08:37:46;102070.22;;;11.35;85.47
18755;BME280;35061;47.664;9.166;2024-03-22T08:40:12;102070.09;;;11.39;85.27
18755;BME280;35061;47.664;9.166;2024-03-22T08:42:40;102066.59;;;11.44;84.91
18755;BME280;35061;47.664;9.166;2024-03-22T08:45:06;102060.87;;;11.44;84.27
18755;BME280;35061;47.664;9.166;2024-03-22T08:47:32;102064.73;;;11.50;84.35
18755;BME280;35061;47.664;9.166;2024-03-22T08:50:01;102072.73;;;11.55;83.97
18755;BME280;35061;47.664;9.166;2024-03-22T08:52:27;102062.24;;;11.62;83.72
18755;BME280;35061;47.664;9.166;2024-03-22T08:54:53;102055.86;;;11.67;83.54
18755;BME280;35061;47.664;9.166;2024-03-22T08:57:19;102051.58;;;11.71;83.17
18755;BME280;35061;47.664;9.166;2024-03-22T08:59:45;102056.87;;;11.73;82.90
18755;BME280;35061;47.664;9.166;2024-03-22T09:02:11;102054.66;;;11.77;82.74
18755;BME280;35061;47.664;9.166;2024-03-22T09:04:38;102050.86;;;11.80;82.34
18755;BME280;35061;47.664;9.166;2024-03-22T09:07:04;102040.33;;;11.86;82.11
18755;BME280;35061;47.664;9.166;2024-03-22T09:09:30;102039.71;;;11.92;81.88
18755;BME280;35061;47.664;9.166;2024-03-22T09:11:56;102037.03;;;11.97;81.78
18755;BME280;35061;47.664;9.166;2024-03-22T09:14:21;102035.95;;;12.04;81.21
18755;BME280;35061;47.664;9.166;2024-03-22T09:16:47;102036.90;;;12.10;81.22
18755;BME280;35061;47.664;9.166;2024-03-22T09:19:13;102035.03;;;12.17;81.02
18755;BME280;35061;47.664;9.166;2024-03-22T09:21:39;102026.56;;;12.22;80.80
18755;BME280;35061;47.664;9.166;2024-03-22T09:24:05;102018.59;;;12.26;80.65
18755;BME280;35061;47.664;9.166;2024-03-22T09:26:32;102018.29;;;12.34;80.10
18755;BME280;35061;47.664;9.166;2024-03-22T09:28:58;102020.55;;;12.39;80.04
18755;BME280;35061;47.664;9.166;2024-03-22T09:31:24;102020.05;;;12.50;80.07
18755;BME280;35061;47.664;9.166;2024-03-22T09:33:50;102016.88;;;12.57;79.86
18755;BME280;35061;47.664;9.166;2024-03-22T09:36:16;102012.08;;;12.63;79.50
18755;BME280;35061;47.664;9.166;2024-03-22T09:38:42;102006.81;;;12.71;79.28
18755;BME280;35061;47.664;9.166;2024-03-22T09:41:08;101999.95;;;12.78;78.88
18755;BME280;35061;47.664;9.166;2024-03-22T09:43:34;102003.28;;;12.86;78.69
18755;BME280;35061;47.664;9.166;2024-03-22T09:46:01;101997.69;;;12.91;78.40
18755;BME280;35061;47.664;9.166;2024-03-22T09:48:29;101992.39;;;12.99;78.06
18755;BME280;35061;47.664;9.166;2024-03-22T09:50:55;101991.61;;;13.08;77.83
18755;BME280;35061;47.664;9.166;2024-03-22T09:53:21;101991.25;;;13.15;77.62
18755;BME280;35061;47.664;9.166;2024-03-22T09:55:49;101994.09;;;13.24;77.32
18755;BME280;35061;47.664;9.166;2024-03-22T09:58:16;101980.16;;;13.32;77.03
18755;BME280;35061;47.664;9.166;2024-03-22T10:00:45;101974.54;;;13.38;76.70
18755;BME280;35061;47.664;9.166;2024-03-22T10:03:11;101978.69;;;13.46;76.46
18755;BME280;35061;47.664;9.166;2024-03-22T10:05:37;101974.18;;;13.54;76.06
18755;BME280;35061;47.664;9.166;2024-03-22T10:08:04;101976.73;;;13.62;75.62
18755;BME280;35061;47.664;9.166;2024-03-22T10:10:32;101962.47;;;13.67;74.96
18755;BME280;35061;47.664;9.166;2024-03-22T10:13:03;101958.71;;;13.76;74.97
18755;BME280;35061;47.664;9.166;2024-03-22T10:15:30;101955.80;;;13.86;74.53
18755;BME280;35061;47.664;9.166;2024-03-22T10:17:59;101954.76;;;13.98;74.43
18755;BME280;35061;47.664;9.166;2024-03-22T10:20:25;101943.48;;;14.09;74.02
18755;BME280;35061;47.664;9.166;2024-03-22T10:22:58;101938.11;;;14.17;73.34
18755;BME280;35061;47.664;9.166;2024-03-22T10:25:28;101938.24;;;14.23;71.71
18755;BME280;35061;47.664;9.166;2024-03-22T10:27:54;101931.30;;;14.30;72.43
18755;BME280;35061;47.664;9.166;2024-03-22T10:30:21;101924.57;;;14.33;71.98
18755;BME280;35061;47.664;9.166;2024-03-22T10:32:48;101924.87;;;14.35;71.91
18755;BME280;35061;47.664;9.166;2024-03-22T10:35:15;101915.45;;;14.34;71.43
18755;BME280;35061;47.664;9.166;2024-03-22T10:37:42;101923.10;;;14.37;71.34
18755;BME280;35061;47.664;9.166;2024-03-22T10:40:08;101920.19;;;14.37;71.17
18755;BME280;35061;47.664;9.166;2024-03-22T10:42:35;101920.98;;;14.38;70.73
18755;BME280;35061;47.664;9.166;2024-03-22T10:45:02;101909.27;;;14.42;70.68
18755;BME280;35061;47.664;9.166;2024-03-22T10:47:30;101912.54;;;14.49;70.68
18755;BME280;35061;47.664;9.166;2024-03-22T10:50:08;101901.75;;;14.59;70.36
18755;BME280;35061;47.664;9.166;2024-03-22T10:52:51;101900.34;;;14.70;69.47
18755;BME280;35061;47.664;9.166;2024-03-22T10:55:29;101897.40;;;14.79;68.97
18755;BME280;35061;47.664;9.166;2024-03-22T10:57:57;101880.88;;;14.79;68.75
18755;BME280;35061;47.664;9.166;2024-03-22T11:00:31;101886.45;;;14.83;69.18
18755;BME280;35061;47.664;9.166;2024-03-22T11:02:57;101882.09;;;14.88;68.61
18755;BME280;35061;47.664;9.166;2024-03-22T11:05:23;101876.41;;;14.93;68.86
18755;BME280;35061;47.664;9.166;2024-03-22T11:08:05;101875.72;;;14.99;68.16
18755;BME280;35061;47.664;9.166;2024-03-22T11:10:35;101870.13;;;15.10;66.86
18755;BME280;35061;47.664;9.166;2024-03-22T11:13:02;101872.91;;;15.19;67.41
18755;BME280;35061;47.664;9.166;2024-03-22T11:15:29;101869.63;;;15.32;66.03
18755;BME280;35061;47.664;9.166;2024-03-22T11:17:55;101858.78;;;15.42;65.46
18755;BME280;35061;47.664;9.166;2024-03-22T11:20:21;101855.05;;;15.57;59.85
18755;BME280;35061;47.664;9.166;2024-03-22T11:22:47;101847.83;;;15.67;61.52
18755;BME280;35061;47.664;9.166;2024-03-22T11:25:13;101828.17;;;15.71;56.45
18755;BME280;35061;47.664;9.166;2024-03-22T11:27:39;101838.27;;;15.82;59.02
18755;BME280;35061;47.664;9.166;2024-03-22T11:30:05;101831.61;;;15.90;60.08
18755;BME280;35061;47.664;9.166;2024-03-22T11:32:33;101825.36;;;15.98;59.04
18755;BME280;35061;47.664;9.166;2024-03-22T11:35:14;101812.28;;;16.02;59.37
18755;BME280;35061;47.664;9.166;2024-03-22T11:37:40;101817.12;;;16.11;56.52
18755;BME280;35061;47.664;9.166;2024-03-22T11:40:08;101809.01;;;16.15;56.78
18755;BME280;35061;47.664;9.166;2024-03-22T11:42:37;101798.88;;;16.26;56.37
18755;BME280;35061;47.664;9.166;2024-03-22T11:45:04;101799.52;;;16.36;56.98
18755;BME280;35061;47.664;9.166;2024-03-22T11:47:30;101797.99;;;16.46;52.93
18755;BME280;35061;47.664;9.166;2024-03-22T11:49:56;101787.62;;;16.60;53.66
18755;BME280;35061;47.664;9.166;2024-03-22T11:52:25;101791.91;;;16.70;52.69
18755;BME280;35061;47.664;9.166;2024-03-22T11:54:52;101788.80;;;16.80;52.48
18755;BME280;35061;47.664;9.166;2024-03-22T11:57:20;101776.51;;;16.85;49.87
18755;BME280;35061;47.664;9.166;2024-03-22T11:59:46;101778.37;;;16.88;52.09
18755;BME280;35061;47.664;9.166;2024-03-22T12:02:12;101773.10;;;16.92;51.27
18755;BME280;35061;47.664;9.166;2024-03-22T12:04:45;101779.19;;;16.94;51.74
18755;BME280;35061;47.664;9.166;2024-03-22T12:07:16;101770.33;;;17.04;51.53
18755;BME280;35061;47.664;9.166;2024-03-22T12:09:42;101753.02;;;17.15;50.14
18755;BME280;35061;47.664;9.166;2024-03-22T12:12:10;101756.00;;;17.26;51.72
18755;BME280;35061;47.664;9.166;2024-03-22T12:14:36;101752.34;;;17.37;49.63
18755;BME280;35061;47.664;9.166;2024-03-22T12:17:03;101750.54;;;17.46;49.62
18755;BME280;35061;47.664;9.166;2024-03-22T12:19:29;101745.84;;;17.54;49.76
18755;BME280;35061;47.664;9.166;2024-03-22T12:21:55;101744.30;;;17.64;49.53
18755;BME280;35061;47.664;9.166;2024-03-22T12:24:21;101734.55;;;17.67;48.36
18755;BME280;35061;47.664;9.166;2024-03-22T12:26:47;101731.94;;;17.69;48.93
18755;BME280;35061;47.664;9.166;2024-03-22T12:29:15;101717.45;;;17.75;48.81
18755;BME280;35061;47.664;9.166;2024-03-22T12:31:42;101720.91;;;17.79;48.61
18755;BME280;35061;47.664;9.166;2024-03-22T12:34:07;101717.74;;;17.89;48.19
18755;BME280;35061;47.664;9.166;2024-03-22T12:36:33;101717.22;;;17.96;47.92
18755;BME280;35061;47.664;9.166;2024-03-22T12:38:59;101709.05;;;18.00;45.70
18755;BME280;35061;47.664;9.166;2024-03-22T12:41:26;101696.95;;;18.02;45.65
18755;BME280;35061;47.664;9.166;2024-03-22T12:43:52;101691.19;;;18.07;46.11
18755;BME280;35061;47.664;9.166;2024-03-22T12:46:18;101685.14;;;18.11;46.04
18755;BME280;35061;47.664;9.166;2024-03-22T12:48:44;101679.84;;;18.15;45.78
18755;BME280;35061;47.664;9.166;2024-03-22T12:51:10;101678.54;;;18.16;43.51
18755;BME280;35061;47.664;9.166;2024-03-22T12:53:37;101677.49;;;18.25;44.42
18755;BME280;35061;47.664;9.166;2024-03-22T12:56:03;101665.88;;;18.31;44.10